Time;durP1;ratioP1;P1;durP2;ratioP2;P2;SDS_P1;SDS_P2;PMS_P1;PMS_P2;Temp;Humidity;BMP_temperature;BMP_pressure;BME280_temperature;BME280_humidity;BME280_pressure;Samples;Min_cycle;Max_cycle;Signal;HPM_P1;HPM_P2
2022/07/31 00:02:20;;;;;;;2.67;2.28;;;19.70;99.90;;;;;;5071552;28;20043;-77
2022/07/31 00:04:45;;;;;;;5.75;2.58;;;19.70;99.90;;;;;;5074873;28;20903;-78
2022/07/31 00:07:11;;;;;;;2.95;2.20;;;19.70;99.90;;;;;;5064096;28;20044;-77
2022/07/31 00:09:37;;;;;;;2.55;2.13;;;19.60;99.90;;;;;;5077848;28;20056;-76
2022/07/31 00:12:03;;;;;;;2.47;2.28;;;19.60;99.90;;;;;;5071699;28;20047;-77
2022/07/31 00:14:29;;;;;;;2.22;2.03;;;19.60;99.90;;;;;;5077603;28;20135;-76
2022/07/31 00:16:56;;;;;;;2.20;2.00;;;19.60;99.90;;;;;;5076382;28;20957;-77
2022/07/31 00:19:22;;;;;;;4.10;2.38;;;19.60;99.90;;;;;;5077335;28;20052;-77
2022/07/31 00:21:47;;;;;;;6.95;2.53;;;19.60;99.90;;;;;;5074394;28;20074;-78
2022/07/31 00:24:13;;;;;;;5.25;2.15;;;19.60;99.90;;;;;;5076596;28;20582;-77
2022/07/31 00:26:39;;;;;;;2.22;2.03;;;19.60;99.90;;;;;;5075932;28;20058;-78
2022/07/31 00:29:06;;;;;;;2.45;2.20;;;19.60;99.90;;;;;;5076330;28;20596;-77
2022/07/31 00:31:31;;;;;;;2.20;1.77;;;19.60;99.90;;;;;;5076086;28;20128;-76
2022/07/31 00:33:57;;;;;;;2.42;1.77;;;19.50;99.90;;;;;;5076901;28;20044;-77
2022/07/31 00:36:23;;;;;;;4.88;2.90;;;19.50;99.90;;;;;;5081720;28;20044;-77
2022/07/31 00:38:48;;;;;;;2.92;2.53;;;19.40;99.90;;;;;;5075016;28;20052;-77
2022/07/31 00:41:14;;;;;;;3.22;2.70;;;19.40;99.90;;;;;;5076138;28;20051;-78
2022/07/31 00:43:40;;;;;;;5.00;3.05;;;19.30;99.90;;;;;;5076360;28;20143;-75
2022/07/31 00:46:06;;;;;;;12.05;2.78;;;19.30;99.90;;;;;;5075531;28;20396;-76
2022/07/31 00:48:32;;;;;;;4.65;2.85;;;19.20;99.90;;;;;;5076218;28;20079;-76
2022/07/31 00:50:58;;;;;;;4.15;2.60;;;19.20;99.90;;;;;;5074875;28;20044;-77
2022/07/31 00:53:24;;;;;;;2.40;2.20;;;19.20;99.90;;;;;;5075677;28;20055;-76
2022/07/31 00:55:50;;;;;;;3.30;2.47;;;19.20;99.90;;;;;;5074365;28;20051;-77
2022/07/31 00:58:15;;;;;;;3.90;2.50;;;19.20;99.90;;;;;;5076399;28;20062;-76
2022/07/31 01:00:41;;;;;;;2.20;2.00;;;19.10;99.90;;;;;;5070768;28;20146;-75
2022/07/31 01:03:07;;;;;;;3.33;2.00;;;19.10;99.90;;;;;;5076759;28;20622;-75
2022/07/31 01:05:32;;;;;;;3.30;2.30;;;19.10;99.90;;;;;;5074861;28;20774;-75
2022/07/31 01:07:58;;;;;;;2.53;1.88;;;19.10;99.90;;;;;;5076737;28;20075;-77
2022/07/31 01:11:00;;;;;;;2.35;2.10;;;19.00;99.90;;;;;;5072518;28;20045;-78
2022/07/31 01:13:35;;;;;;;2.20;1.83;;;19.00;99.90;;;;;;5074479;28;20056;-75
2022/07/31 01:16:03;;;;;;;1.98;1.80;;;18.90;99.90;;;;;;5073379;28;20155;-73
2022/07/31 01:18:33;;;;;;;2.30;2.10;;;18.90;99.90;;;;;;5074573;28;20051;-76
2022/07/31 01:21:05;;;;;;;3.45;2.47;;;18.80;99.90;;;;;;5077256;28;20059;-77
2022/07/31 01:23:41;;;;;;;2.55;2.30;;;18.80;99.90;;;;;;5070202;28;20842;-77
2022/07/31 01:26:21;;;;;;;2.38;2.08;;;18.70;99.90;;;;;;5071333;28;20047;-76
2022/07/31 01:29:21;;;;;;;2.35;2.15;;;18.60;99.90;;;;;;5073093;28;20060;-77
2022/07/31 01:32:07;;;;;;;2.50;2.10;;;18.60;99.90;;;;;;5075223;28;20148;-75
2022/07/31 01:34:41;;;;;;;3.08;2.20;;;18.50;99.90;;;;;;5072335;28;20078;-76
2022/07/31 01:37:22;;;;;;;3.33;2.35;;;18.40;99.90;;;;;;5076722;28;20055;-77
2022/07/31 01:39:58;;;;;;;4.03;2.17;;;18.40;99.90;;;;;;5079703;28;20047;-76
2022/07/31 01:42:26;;;;;;;3.25;2.03;;;18.40;99.90;;;;;;5069957;28;20425;-76
2022/07/31 01:44:56;;;;;;;4.30;2.22;;;18.40;99.90;;;;;;5094145;28;20059;-77
2022/07/31 01:47:23;;;;;;;3.80;1.80;;;18.40;99.90;;;;;;5078398;28;20043;-73
2022/07/31 01:49:52;;;;;;;2.55;2.35;;;18.30;99.90;;;;;;5073792;28;20048;-76
2022/07/31 01:52:19;;;;;;;2.92;2.30;;;18.30;99.90;;;;;;5078404;28;20056;-74
2022/07/31 01:54:46;;;;;;;3.78;2.40;;;18.40;99.90;;;;;;5078050;28;20079;-76
2022/07/31 01:57:14;;;;;;;5.80;3.13;;;18.40;99.90;;;;;;5078925;28;20047;-77
2022/07/31 01:59:41;;;;;;;3.47;2.67;;;18.40;99.90;;;;;;5070080;28;20091;-76
2022/07/31 02:02:07;;;;;;;2.42;2.22;;;18.40;99.90;;;;;;5080259;28;20119;-77
2022/07/31 02:04:33;;;;;;;3.33;2.17;;;18.30;99.90;;;;;;5078313;28;20074;-76
2022/07/31 02:07:02;;;;;;;3.63;2.40;;;18.30;99.90;;;;;;5080539;28;20047;-78
2022/07/31 02:09:31;;;;;;;2.50;2.20;;;18.30;99.90;;;;;;5076812;28;20048;-78
2022/07/31 02:11:58;;;;;;;2.72;2.13;;;18.30;99.90;;;;;;5077447;28;20102;-78
2022/07/31 02:14:25;;;;;;;2.65;2.10;;;18.30;99.90;;;;;;5079002;28;20055;-77
2022/07/31 02:16:51;;;;;;;3.28;2.47;;;18.30;99.90;;;;;;5069598;28;20422;-77
2022/07/31 02:19:18;;;;;;;3.47;2.20;;;18.30;99.90;;;;;;5078877;28;20052;-78
2022/07/31 02:21:44;;;;;;;2.65;2.45;;;18.30;99.90;;;;;;5077110;28;20036;-78
2022/07/31 02:24:10;;;;;;;2.47;2.28;;;18.30;99.90;;;;;;5078726;28;20074;-77
2022/07/31 02:26:38;;;;;;;2.80;2.58;;;18.30;99.90;;;;;;5079864;28;20078;-76
2022/07/31 02:29:05;;;;;;;3.45;2.70;;;18.40;99.90;;;;;;5083572;28;20052;-77
2022/07/31 02:31:33;;;;;;;2.67;2.40;;;18.40;99.90;;;;;;5078893;28;20054;-77
2022/07/31 02:33:59;;;;;;;6.57;2.70;;;18.40;99.90;;;;;;5080303;28;20048;-75
2022/07/31 02:36:27;;;;;;;4.05;2.63;;;18.40;99.90;;;;;;5078815;28;20816;-77
2022/07/31 02:38:55;;;;;;;3.75;3.10;;;18.40;99.90;;;;;;5076848;28;20052;-76
2022/07/31 02:41:21;;;;;;;4.30;2.45;;;18.40;99.90;;;;;;5078921;28;20044;-75
2022/07/31 02:43:48;;;;;;;3.65;2.53;;;18.50;99.90;;;;;;5078413;28;20044;-78
2022/07/31 02:46:14;;;;;;;3.30;2.72;;;18.50;99.90;;;;;;5079513;28;20070;-78
2022/07/31 02:48:40;;;;;;;2.75;2.55;;;18.50;99.90;;;;;;5077425;28;20487;-76
2022/07/31 02:51:07;;;;;;;4.03;2.72;;;18.50;99.90;;;;;;5078672;28;20075;-77
2022/07/31 02:53:33;;;;;;;5.30;2.47;;;18.50;99.90;;;;;;5077845;28;20070;-78
2022/07/31 02:56:01;;;;;;;2.28;2.05;;;18.50;99.90;;;;;;5079074;28;20051;-77
2022/07/31 02:58:26;;;;;;;3.20;2.25;;;18.50;99.90;;;;;;5078598;28;20151;-76
2022/07/31 03:01:04;;;;;;;3.25;2.20;;;18.60;99.90;;;;;;5082154;28;20040;-77
2022/07/31 03:03:30;;;;;;;2.90;2.15;;;18.60;99.90;;;;;;5077803;28;20164;-76
2022/07/31 03:05:56;;;;;;;3.22;2.30;;;18.60;99.90;;;;;;5078235;28;20118;-78
2022/07/31 03:08:22;;;;;;;3.03;2.03;;;18.60;99.90;;;;;;5078549;28;20058;-77
2022/07/31 03:10:48;;;;;;;1.98;1.80;;;18.60;99.90;;;;;;5078429;28;20083;-78
2022/07/31 03:13:15;;;;;;;4.97;2.10;;;18.70;99.90;;;;;;5076438;28;20524;-78
2022/07/31 03:15:43;;;;;;;3.55;2.20;;;18.60;99.90;;;;;;5075245;28;20579;-75
2022/07/31 03:18:15;;;;;;;5.45;2.42;;;18.70;99.90;;;;;;5076219;28;20476;-75
2022/07/31 03:20:42;;;;;;;7.70;3.08;;;18.70;99.90;;;;;;5086913;28;20129;-74
2022/07/31 03:23:11;;;;;;;3.60;2.05;;;18.70;99.90;;;;;;5080083;28;20051;-77
2022/07/31 03:25:37;;;;;;;2.75;2.40;;;18.70;99.90;;;;;;5077700;28;20069;-76
2022/07/31 03:28:03;;;;;;;3.42;2.70;;;18.70;99.90;;;;;;5077101;28;20054;-78
2022/07/31 03:30:29;;;;;;;2.15;1.83;;;18.70;99.90;;;;;;5077525;28;20055;-78
2022/07/31 03:32:55;;;;;;;2.38;2.15;;;18.70;99.90;;;;;;5084020;28;20040;-78
2022/07/31 03:35:22;;;;;;;4.32;2.95;;;18.60;99.90;;;;;;5076280;28;20048;-74
2022/07/31 03:37:48;;;;;;;3.40;2.33;;;18.60;99.90;;;;;;5077411;28;20052;-77
2022/07/31 03:40:14;;;;;;;2.90;2.20;;;18.60;99.90;;;;;;5075566;28;20048;-78
2022/07/31 03:42:40;;;;;;;4.93;1.95;;;18.60;99.90;;;;;;5078123;28;20468;-77
2022/07/31 03:45:08;;;;;;;3.70;2.60;;;18.60;99.90;;;;;;5077661;28;20048;-78
2022/07/31 03:47:35;;;;;;;2.85;2.15;;;18.60;99.90;;;;;;5076831;28;20123;-76
2022/07/31 03:50:01;;;;;;;2.30;2.10;;;18.50;99.90;;;;;;5081830;28;20056;-75
2022/07/31 03:52:28;;;;;;;3.90;2.55;;;18.40;99.90;;;;;;5077556;27;20047;-77
2022/07/31 03:54:54;;;;;;;3.25;2.50;;;18.40;99.90;;;;;;5075307;28;20058;-76
2022/07/31 03:57:21;;;;;;;3.10;2.80;;;18.30;99.90;;;;;;5073766;28;21263;-77
2022/07/31 03:59:48;;;;;;;2.58;2.38;;;18.30;99.90;;;;;;5076320;28;20567;-77
2022/07/31 04:02:14;;;;;;;3.33;2.65;;;18.20;99.90;;;;;;5076691;28;20101;-77
2022/07/31 04:04:42;;;;;;;3.35;2.95;;;18.10;99.90;;;;;;5074432;28;20048;-76
2022/07/31 04:07:08;;;;;;;2.92;2.38;;;18.10;99.90;;;;;;5076978;28;20046;-78
2022/07/31 04:09:34;;;;;;;3.17;2.88;;;18.00;99.90;;;;;;5076200;28;20048;-77
2022/07/31 04:11:59;;;;;;;2.90;2.28;;;17.90;99.90;;;;;;5085045;28;20059;-77
2022/07/31 04:14:25;;;;;;;5.25;2.40;;;17.90;99.90;;;;;;5076599;28;20054;-77
2022/07/31 04:16:51;;;;;;;6.25;2.83;;;17.90;99.90;;;;;;5076845;28;20052;-77
2022/07/31 04:19:16;;;;;;;3.22;2.60;;;17.90;99.90;;;;;;5072577;28;20668;-76
2022/07/31 04:21:42;;;;;;;2.70;2.45;;;17.90;99.90;;;;;;5073478;28;20040;-77
2022/07/31 04:24:10;;;;;;;2.50;2.30;;;18.00;99.90;;;;;;5074333;28;20110;-77
2022/07/31 04:26:35;;;;;;;2.00;1.83;;;18.00;99.90;;;;;;5074569;28;20075;-76
2022/07/31 04:29:01;;;;;;;3.05;2.55;;;18.00;99.90;;;;;;5072593;28;20790;-75
2022/07/31 04:31:27;;;;;;;3.17;2.88;;;18.10;99.90;;;;;;5073684;28;20044;-77
2022/07/31 04:33:53;;;;;;;4.53;2.22;;;18.10;99.90;;;;;;5072633;28;20058;-77
2022/07/31 04:36:18;;;;;;;3.25;2.13;;;18.30;99.90;;;;;;5073095;28;20050;-76
2022/07/31 04:38:44;;;;;;;3.70;2.20;;;18.30;99.90;;;;;;5068514;28;20051;-76
2022/07/31 04:41:10;;;;;;;2.97;2.53;;;18.30;99.90;;;;;;5074583;28;20881;-77
2022/07/31 04:43:36;;;;;;;7.15;3.10;;;18.40;99.90;;;;;;5072306;28;20040;-77
2022/07/31 04:46:01;;;;;;;3.38;2.90;;;18.40;99.90;;;;;;5072152;28;20070;-74
2022/07/31 04:48:27;;;;;;;3.78;2.40;;;18.50;99.90;;;;;;5072673;28;20067;-78
2022/07/31 04:50:53;;;;;;;4.05;2.70;;;18.50;99.90;;;;;;5072757;28;20052;-79
2022/07/31 04:53:18;;;;;;;4.60;2.67;;;18.60;99.90;;;;;;5071660;28;20066;-77
2022/07/31 04:56:32;;;;;;;6.00;2.60;;;18.60;99.90;;;;;;5071696;28;20080;-77
2022/07/31 04:58:29;;;;;;;3.25;2.90;;;18.60;99.90;;;;;;5076527;28;20047;-76
2022/07/31 05:00:55;;;;;;;4.28;2.80;;;18.70;99.90;;;;;;5074295;28;20052;-78
2022/07/31 05:03:21;;;;;;;3.95;2.70;;;18.70;99.90;;;;;;5072252;28;20044;-75
2022/07/31 05:05:48;;;;;;;3.72;2.72;;;18.80;99.90;;;;;;5072251;28;20947;-77
2022/07/31 05:08:14;;;;;;;4.22;3.03;;;18.80;99.90;;;;;;5072386;28;20070;-74
2022/07/31 05:13:24;;;;;;;2.85;2.65;;;18.90;99.90;;;;;;5076826;28;20047;-78
2022/07/31 05:15:50;;;;;;;4.00;2.53;;;18.90;99.90;;;;;;5075881;28;20084;-76
2022/07/31 05:18:15;;;;;;;3.42;2.90;;;18.90;99.90;;;;;;5075671;28;20450;-76
2022/07/31 05:20:41;;;;;;;2.65;2.42;;;18.90;99.90;;;;;;5077384;28;20054;-74
2022/07/31 05:23:08;;;;;;;2.85;2.65;;;19.00;99.90;;;;;;5074617;28;20060;-78
2022/07/31 05:25:34;;;;;;;3.17;2.30;;;19.00;99.90;;;;;;5076162;28;20052;-76
2022/07/31 05:27:59;;;;;;;5.75;2.75;;;19.00;99.90;;;;;;5077096;28;20035;-74
2022/07/31 05:30:25;;;;;;;6.07;2.83;;;19.00;99.90;;;;;;5076513;28;20052;-77
2022/07/31 05:32:51;;;;;;;3.38;2.60;;;19.00;99.90;;;;;;5076948;28;20040;-76
2022/07/31 05:35:16;;;;;;;3.55;2.63;;;19.00;99.90;;;;;;5075310;28;20484;-77
2022/07/31 05:37:42;;;;;;;5.78;3.75;;;19.10;99.90;;;;;;5078499;28;20048;-77
2022/07/31 05:40:09;;;;;;;3.88;3.10;;;19.10;99.90;;;;;;5076925;28;20044;-78
2022/07/31 05:42:34;;;;;;;4.07;2.85;;;19.10;99.90;;;;;;5074877;28;20043;-77
2022/07/31 05:45:00;;;;;;;4.68;3.03;;;19.20;99.90;;;;;;5077541;28;20062;-76
2022/07/31 05:47:26;;;;;;;3.28;3.00;;;19.20;99.90;;;;;;5075656;28;20051;-78
2022/07/31 05:49:51;;;;;;;3.28;2.97;;;19.20;99.90;;;;;;5075983;28;20082;-76
2022/07/31 05:52:17;;;;;;;7.20;5.10;;;19.20;99.90;;;;;;5073175;28;20171;-78
2022/07/31 05:54:44;;;;;;;2.70;2.47;;;19.20;99.90;;;;;;5078862;28;20075;-76
2022/07/31 05:57:10;;;;;;;3.25;2.92;;;19.20;99.90;;;;;;5078417;28;20564;-75
2022/07/31 05:59:35;;;;;;;4.00;2.78;;;19.20;99.90;;;;;;5075373;28;20143;-77
2022/07/31 06:02:02;;;;;;;4.60;2.78;;;19.20;99.90;;;;;;5073136;28;20044;-75
2022/07/31 06:04:27;;;;;;;3.92;2.78;;;19.20;99.90;;;;;;5076734;28;20064;-77
2022/07/31 06:06:53;;;;;;;3.90;3.25;;;19.30;99.90;;;;;;5074617;28;20518;-76
2022/07/31 06:09:19;;;;;;;4.00;3.15;;;19.30;99.90;;;;;;5077571;28;20799;-77
2022/07/31 06:11:46;;;;;;;5.90;3.22;;;19.40;99.90;;;;;;5086712;28;20058;-77
2022/07/31 06:14:12;;;;;;;5.22;4.38;;;19.50;99.90;;;;;;5077269;28;20051;-75
2022/07/31 06:16:38;;;;;;;3.25;2.95;;;19.50;99.90;;;;;;5075045;28;20058;-74
2022/07/31 06:19:04;;;;;;;5.25;3.38;;;19.50;99.90;;;;;;5076895;28;20056;-77
2022/07/31 06:21:29;;;;;;;5.97;3.25;;;19.60;99.90;;;;;;5074823;28;20046;-75
2022/07/31 06:23:55;;;;;;;4.47;3.25;;;19.60;99.90;;;;;;5075135;28;20047;-76
2022/07/31 06:26:21;;;;;;;4.10;3.20;;;19.60;99.90;;;;;;5075949;28;20036;-75
2022/07/31 06:28:46;;;;;;;4.35;3.08;;;19.60;99.90;;;;;;5073956;28;20062;-74
2022/07/31 06:31:19;;;;;;;5.57;3.40;;;19.70;99.90;;;;;;5078220;28;20205;-78
2022/07/31 06:33:46;;;;;;;5.32;3.13;;;19.70;99.90;;;;;;5078551;28;20048;-77
2022/07/31 06:36:12;;;;;;;6.07;3.17;;;19.80;99.90;;;;;;5077318;28;20594;-78
2022/07/31 06:38:38;;;;;;;3.75;3.45;;;19.80;99.90;;;;;;5077629;28;20052;-79
2022/07/31 06:41:04;;;;;;;4.20;3.25;;;19.90;99.90;;;;;;5082353;28;20047;-77
2022/07/31 06:43:30;;;;;;;4.75;3.30;;;20.00;99.90;;;;;;5078275;28;20044;-77
2022/07/31 06:45:55;;;;;;;5.72;3.55;;;20.10;99.90;;;;;;5078081;28;20055;-77
2022/07/31 06:48:21;;;;;;;3.63;3.25;;;20.20;99.90;;;;;;5077055;28;20093;-76
2022/07/31 06:50:47;;;;;;;4.85;3.70;;;20.30;99.90;;;;;;5080042;28;20044;-78
2022/07/31 06:53:13;;;;;;;6.68;3.78;;;20.40;99.90;;;;;;5084727;28;20043;-77
2022/07/31 06:55:38;;;;;;;3.97;3.58;;;20.50;99.90;;;;;;5079811;28;20055;-76
2022/07/31 06:58:04;;;;;;;4.28;3.40;;;20.50;99.90;;;;;;5082461;28;20052;-77
2022/07/31 07:00:30;;;;;;;4.35;3.10;;;20.50;99.90;;;;;;5075325;28;20278;-75
2022/07/31 07:02:55;;;;;;;4.65;4.22;;;20.50;99.90;;;;;;5080612;28;20445;-78
2022/07/31 07:05:21;;;;;;;4.43;3.72;;;20.50;99.90;;;;;;5077323;28;20112;-75
2022/07/31 07:07:47;;;;;;;5.22;4.15;;;20.50;99.90;;;;;;5078043;28;20105;-71
2022/07/31 07:10:12;;;;;;;5.32;4.35;;;20.60;99.90;;;;;;5074302;28;20051;-78
2022/07/31 07:12:38;;;;;;;5.05;3.38;;;20.50;99.90;;;;;;5074202;28;20852;-76
2022/07/31 07:15:05;;;;;;;7.32;4.13;;;20.50;99.90;;;;;;5074864;28;20052;-72
2022/07/31 07:17:30;;;;;;;6.88;3.35;;;20.50;99.90;;;;;;5073321;28;20122;-75
2022/07/31 07:19:57;;;;;;;7.05;3.47;;;20.50;99.90;;;;;;5073333;28;20093;-76
2022/07/31 07:22:23;;;;;;;4.45;4.05;;;20.60;99.90;;;;;;5073712;28;20071;-73
2022/07/31 07:24:48;;;;;;;8.55;4.82;;;20.60;99.90;;;;;;5075761;28;20897;-77
2022/07/31 07:27:14;;;;;;;6.10;4.18;;;20.60;99.90;;;;;;5073826;28;20099;-77
2022/07/31 07:29:40;;;;;;;5.50;3.92;;;20.60;99.90;;;;;;5075429;28;20121;-75
2022/07/31 07:32:05;;;;;;;7.35;3.97;;;20.60;99.90;;;;;;5074659;28;20050;-74
2022/07/31 07:34:31;;;;;;;7.60;4.53;;;20.70;99.90;;;;;;5072618;28;20812;-77
2022/07/31 07:36:57;;;;;;;7.38;4.57;;;20.70;99.90;;;;;;5074621;28;20079;-75
2022/07/31 07:39:22;;;;;;;5.07;4.20;;;20.70;99.90;;;;;;5073525;28;20479;-77
2022/07/31 07:41:48;;;;;;;4.75;3.88;;;20.80;99.90;;;;;;5077273;28;20082;-79
2022/07/31 07:44:14;;;;;;;4.13;3.72;;;20.80;99.90;;;;;;5072609;28;20169;-78
2022/07/31 07:46:39;;;;;;;5.78;4.13;;;20.90;99.90;;;;;;5075053;28;20930;-74
2022/07/31 07:49:05;;;;;;;4.70;4.20;;;21.00;99.90;;;;;;5073493;28;20047;-73
2022/07/31 07:51:31;;;;;;;4.70;3.92;;;21.10;99.90;;;;;;5075241;28;20048;-74
2022/07/31 07:53:57;;;;;;;6.20;4.32;;;21.20;99.90;;;;;;5072822;28;20047;-74
2022/07/31 07:56:23;;;;;;;6.65;4.10;;;21.40;99.90;;;;;;5074606;28;20070;-76
2022/07/31 07:58:49;;;;;;;5.47;4.60;;;21.50;99.90;;;;;;5074425;28;20138;-75
2022/07/31 08:01:15;;;;;;;9.30;4.05;;;21.60;99.90;;;;;;5074375;28;20697;-76
2022/07/31 08:03:41;;;;;;;6.22;4.13;;;21.80;99.90;;;;;;5074670;28;20117;-76
2022/07/31 08:06:07;;;;;;;5.93;4.15;;;22.00;99.90;;;;;;5073586;28;20445;-77
2022/07/31 08:08:32;;;;;;;6.40;4.18;;;22.30;99.70;;;;;;4714563;28;9999643;-73
2022/07/31 08:10:59;;;;;;;5.97;5.18;;;22.50;99.30;;;;;;5070756;28;20031;-77
2022/07/31 08:13:25;;;;;;;5.20;4.68;;;22.70;98.80;;;;;;5071003;28;20076;-76
2022/07/31 08:15:51;;;;;;;8.27;5.10;;;22.80;98.00;;;;;;5070195;28;20158;-73
2022/07/31 08:18:17;;;;;;;6.53;5.82;;;22.90;98.30;;;;;;5070458;28;20127;-76
2022/07/31 08:20:42;;;;;;;6.80;4.80;;;23.10;98.30;;;;;;5067672;28;20109;-76
2022/07/31 08:23:08;;;;;;;8.15;5.20;;;23.20;98.40;;;;;;5069440;28;20056;-77
2022/07/31 08:25:34;;;;;;;7.57;4.15;;;23.40;98.20;;;;;;5068614;28;20150;-76
2022/07/31 08:27:59;;;;;;;5.68;4.63;;;23.50;98.10;;;;;;5069857;28;20087;-77
2022/07/31 08:30:25;;;;;;;8.80;5.15;;;23.60;98.10;;;;;;5072975;28;20750;-77
2022/07/31 08:32:51;;;;;;;5.25;4.75;;;23.70;98.00;;;;;;5068464;28;20716;-75
2022/07/31 08:35:18;;;;;;;7.75;5.45;;;23.70;97.80;;;;;;5070723;28;21009;-76
2022/07/31 08:37:44;;;;;;;5.40;4.68;;;23.60;97.60;;;;;;5073351;28;20051;-75
2022/07/31 08:40:10;;;;;;;8.23;4.82;;;23.60;97.80;;;;;;5070749;28;20044;-76
2022/07/31 08:42:36;;;;;;;5.90;5.40;;;23.60;97.80;;;;;;5068858;28;20048;-78
2022/07/31 08:45:05;;;;;;;6.57;5.13;;;23.40;97.80;;;;;;5070679;28;20052;-74
2022/07/31 08:47:33;;;;;;;5.70;4.20;;;23.30;97.80;;;;;;5069158;28;20050;-75
2022/07/31 08:50:00;;;;;;;6.30;4.38;;;23.20;98.40;;;;;;5071199;28;20039;-75
2022/07/31 08:52:31;;;;;;;5.53;4.85;;;23.10;98.40;;;;;;5069439;28;20036;-76
2022/07/31 08:54:58;;;;;;;6.00;4.70;;;23.10;98.70;;;;;;5074121;28;20117;-74
2022/07/31 08:57:25;;;;;;;7.63;5.55;;;23.00;99.00;;;;;;5070678;28;20977;-74
2022/07/31 08:59:52;;;;;;;7.75;5.28;;;22.80;99.00;;;;;;5070257;28;20113;-75
2022/07/31 09:02:18;;;;;;;6.53;4.47;;;22.80;99.30;;;;;;5068221;28;20200;-76
2022/07/31 09:04:43;;;;;;;5.72;5.07;;;22.70;99.70;;;;;;5070570;28;20048;-74
2022/07/31 09:07:14;;;;;;;7.00;5.25;;;22.60;99.90;;;;;;5067400;28;20046;-76
2022/07/31 09:09:44;;;;;;;6.07;5.38;;;22.40;99.90;;;;;;5070223;28;20040;-76
2022/07/31 09:12:10;;;;;;;7.38;5.47;;;22.40;99.90;;;;;;5072717;28;21221;-77
2022/07/31 09:14:36;;;;;;;9.25;4.85;;;22.40;99.90;;;;;;5069487;28;20044;-78
2022/07/31 09:17:03;;;;;;;6.32;4.85;;;22.30;99.90;;;;;;5069995;28;20048;-74
2022/07/31 09:19:55;;;;;;;17.73;5.88;;;22.30;99.90;;;;;;5071991;28;20044;-74
2022/07/31 09:22:26;;;;;;;11.90;5.90;;;22.20;99.90;;;;;;5066343;28;20123;-76
2022/07/31 09:24:52;;;;;;;9.80;5.78;;;22.10;99.90;;;;;;5068148;28;20032;-74
2022/07/31 09:27:19;;;;;;;10.93;6.82;;;22.00;99.90;;;;;;5072269;28;20831;-72
2022/07/31 09:29:48;;;;;;;8.85;6.32;;;22.00;99.90;;;;;;5067812;28;20048;-73
2022/07/31 09:32:19;;;;;;;8.50;5.95;;;21.90;99.90;;;;;;5075598;28;20047;-73
2022/07/31 09:34:46;;;;;;;14.13;6.78;;;21.90;99.90;;;;;;5073329;28;20051;-73
2022/07/31 09:37:13;;;;;;;8.60;6.20;;;21.90;99.90;;;;;;5071146;28;20039;-72
2022/07/31 09:39:39;;;;;;;9.52;7.22;;;22.00;99.90;;;;;;5073382;28;20672;-72
2022/07/31 09:42:07;;;;;;;10.00;7.13;;;21.90;99.90;;;;;;5071845;28;20047;-72
2022/07/31 09:44:43;;;;;;;8.82;7.65;;;21.90;99.90;;;;;;5071631;28;20062;-72
2022/07/31 09:47:29;;;;;;;9.27;6.90;;;22.00;99.90;;;;;;5073808;28;20048;-73
2022/07/31 09:49:57;;;;;;;8.40;7.00;;;21.80;99.90;;;;;;5071153;28;20048;-73
2022/07/31 09:52:23;;;;;;;9.32;7.30;;;21.80;99.90;;;;;;5072206;28;20491;-72
2022/07/31 09:55:06;;;;;;;11.35;7.10;;;21.80;99.90;;;;;;5071081;28;20609;-72
2022/07/31 09:57:34;;;;;;;;;;;21.70;99.90;;;;;;5073535;28;20065;-72
2022/07/31 10:00:00;;;;;;;9.75;7.05;;;21.70;99.90;;;;;;5075808;28;20007;-72
2022/07/31 10:02:28;;;;;;;9.35;8.45;;;21.70;99.90;;;;;;5071793;28;20086;-72
2022/07/31 10:04:56;;;;;;;11.05;7.95;;;21.60;99.90;;;;;;5075363;28;20110;-72
2022/07/31 10:07:26;;;;;;;9.60;8.07;;;21.60;99.90;;;;;;5077656;28;20150;-73
2022/07/31 10:09:56;;;;;;;7.55;6.20;;;21.50;99.90;;;;;;5073500;28;20586;-72
2022/07/31 10:12:27;;;;;;;12.95;8.35;;;21.40;99.90;;;;;;5075765;28;20117;-73
2022/07/31 10:14:55;;;;;;;10.65;8.88;;;21.30;99.90;;;;;;5072159;28;20109;-72
2022/07/31 10:17:25;;;;;;;11.73;8.73;;;21.30;99.90;;;;;;5074994;28;20761;-72
2022/07/31 10:19:55;;;;;;;13.77;10.15;;;21.20;99.90;;;;;;5075085;28;20821;-72
2022/07/31 10:22:21;;;;;;;12.55;9.07;;;21.20;99.90;;;;;;5079541;28;20275;-72
2022/07/31 10:24:50;;;;;;;12.75;9.15;;;21.20;99.90;;;;;;5071955;28;20051;-72
2022/07/31 10:27:22;;;;;;;13.48;9.77;;;21.20;99.90;;;;;;5074819;28;20089;-73
2022/07/31 10:29:48;;;;;;;12.65;9.88;;;21.30;99.90;;;;;;5073784;28;20060;-72
2022/07/31 10:32:15;;;;;;;15.23;9.20;;;21.50;99.90;;;;;;5072734;28;20056;-72
2022/07/31 10:34:41;;;;;;;11.88;10.20;;;21.50;99.90;;;;;;5077734;28;20039;-72
2022/07/31 10:37:17;;;;;;;11.30;8.88;;;21.40;99.90;;;;;;5074830;28;20052;-72
2022/07/31 10:40:07;;;;;;;13.93;10.27;;;21.50;99.90;;;;;;5076154;28;20055;-72
2022/07/31 10:42:42;;;;;;;14.07;10.52;;;21.50;99.90;;;;;;5064798;28;20048;-72
2022/07/31 10:45:16;;;;;;;12.43;10.15;;;21.40;99.90;;;;;;5071046;28;20128;-72
2022/07/31 10:47:53;;;;;;;11.63;8.48;;;21.40;99.90;;;;;;5074599;28;20086;-72
2022/07/31 10:50:23;;;;;;;11.80;10.30;;;21.30;99.90;;;;;;5069364;28;20044;-72
2022/07/31 10:52:49;;;;;;;11.52;9.75;;;21.30;99.90;;;;;;5072873;28;20048;-72
2022/07/31 10:55:26;;;;;;;11.90;8.52;;;21.20;99.90;;;;;;5076603;28;20044;-72
2022/07/31 10:57:52;;;;;;;12.10;7.78;;;21.20;99.90;;;;;;5057471;28;20797;-72
2022/07/31 11:00:20;;;;;;;13.30;9.52;;;21.10;99.90;;;;;;5068695;28;20044;-72
2022/07/31 11:02:46;;;;;;;10.57;8.43;;;21.10;99.90;;;;;;5069637;28;20112;-71
2022/07/31 11:05:14;;;;;;;13.35;8.25;;;21.10;99.90;;;;;;5070303;28;20083;-72
2022/07/31 11:07:46;;;;;;;11.50;8.55;;;21.20;99.90;;;;;;5072335;28;20112;-72
2022/07/31 11:10:18;;;;;;;12.18;9.10;;;21.20;99.90;;;;;;5067207;28;20118;-72
2022/07/31 11:12:45;;;;;;;10.73;7.53;;;21.20;99.90;;;;;;5074378;28;20517;-72
2022/07/31 11:15:24;;;;;;;11.32;8.73;;;21.10;99.90;;;;;;5075121;28;20059;-72
2022/07/31 11:17:51;;;;;;;12.63;8.70;;;21.10;99.90;;;;;;5076922;28;20038;-72
2022/07/31 11:20:18;;;;;;;12.82;8.88;;;21.10;99.90;;;;;;5075619;28;20821;-72
2022/07/31 11:22:57;;;;;;;10.90;8.75;;;21.00;99.90;;;;;;5072761;28;20040;-72
2022/07/31 11:25:24;;;;;;;11.40;8.80;;;21.00;99.90;;;;;;5078297;28;20133;-72
2022/07/31 11:27:50;;;;;;;12.07;9.30;;;20.90;99.90;;;;;;5076462;28;20052;-72
2022/07/31 11:30:16;;;;;;;11.65;9.50;;;21.00;99.90;;;;;;5080875;28;20087;-72
2022/07/31 11:32:50;;;;;;;11.63;8.85;;;21.10;99.90;;;;;;5076363;28;20597;-72
2022/07/31 11:35:28;;;;;;;14.18;10.10;;;21.10;99.90;;;;;;5073654;28;20156;-72
2022/07/31 11:37:56;;;;;;;19.38;9.73;;;21.10;99.90;;;;;;5062284;28;20060;-71
2022/07/31 11:40:22;;;;;;;13.25;9.48;;;21.20;99.90;;;;;;5073589;28;20052;-71
2022/07/31 11:42:48;;;;;;;10.98;9.23;;;21.10;99.90;;;;;;5072542;28;20051;-71
2022/07/31 11:45:15;;;;;;;12.45;10.45;;;21.00;99.90;;;;;;5074990;28;20085;-70
2022/07/31 11:47:45;;;;;;;15.48;9.73;;;20.80;99.90;;;;;;5073341;28;20040;-71
2022/07/31 11:50:12;;;;;;;13.15;10.98;;;20.70;99.90;;;;;;5073235;28;20573;-70
2022/07/31 11:52:42;;;;;;;16.42;9.98;;;20.70;99.90;;;;;;5074023;28;20040;-71
2022/07/31 11:55:13;;;;;;;14.75;11.18;;;20.60;99.90;;;;;;5071523;28;20472;-71
2022/07/31 11:57:40;;;;;;;11.05;9.20;;;20.60;99.90;;;;;;5074158;28;20127;-71
2022/07/31 12:00:15;;;;;;;17.00;11.40;;;20.50;99.90;;;;;;5080065;28;20087;-71
2022/07/31 12:02:46;;;;;;;13.23;10.77;;;20.40;99.90;;;;;;5074351;28;20079;-71
2022/07/31 12:05:13;;;;;;;16.65;12.05;;;20.30;99.90;;;;;;5073597;28;20479;-71
2022/07/31 12:07:40;;;;;;;14.98;10.45;;;20.20;99.90;;;;;;5074156;28;20051;-70
2022/07/31 12:10:11;;;;;;;19.40;11.18;;;20.20;99.90;;;;;;5073117;28;20075;-70
2022/07/31 12:12:38;;;;;;;18.80;12.50;;;20.10;99.90;;;;;;5074804;28;20143;-70
2022/07/31 12:15:15;;;;;;;15.85;11.00;;;20.00;99.90;;;;;;5071504;28;20123;-71
2022/07/31 12:17:41;;;;;;;14.95;11.57;;;20.00;99.90;;;;;;5064616;28;20047;-71
2022/07/31 12:20:08;;;;;;;12.90;10.35;;;19.80;99.90;;;;;;5072280;28;20051;-72
2022/07/31 12:22:34;;;;;;;17.98;11.65;;;19.80;99.90;;;;;;5072924;28;20063;-71
2022/07/31 12:25:00;;;;;;;13.40;10.15;;;19.70;99.90;;;;;;5075069;28;20040;-72
2022/07/31 12:27:26;;;;;;;12.43;9.88;;;19.60;99.90;;;;;;5072704;28;20044;-72
2022/07/31 12:29:52;;;;;;;15.80;10.88;;;19.60;99.90;;;;;;5074131;28;20059;-73
2022/07/31 12:32:26;;;;;;;14.40;10.60;;;19.50;99.90;;;;;;5073286;28;21045;-73
2022/07/31 12:35:03;;;;;;;14.85;10.40;;;19.50;99.90;;;;;;5072686;28;20345;-73
2022/07/31 12:37:29;;;;;;;14.15;10.50;;;19.50;99.90;;;;;;5074305;28;20054;-71
2022/07/31 12:39:56;;;;;;;17.83;11.32;;;19.50;99.90;;;;;;5071021;28;20048;-73
2022/07/31 12:42:33;;;;;;;19.30;12.25;;;19.50;99.90;;;;;;5070498;28;20040;-72
2022/07/31 12:45:00;;;;;;;16.98;11.48;;;19.60;99.90;;;;;;5074108;28;20052;-72
2022/07/31 12:47:31;;;;;;;12.70;11.10;;;19.50;99.90;;;;;;5073858;28;20051;-72
2022/07/31 12:49:59;;;;;;;15.57;11.40;;;19.50;99.90;;;;;;5072031;28;20059;-72